Startpagina
METAR-TAF:

METAR-TAF

Vliegvelden :

Wittmund, Duitsland

breedte: 53-33N, lengte: 007-40E, hoogte: 8 m

Actueel weer

Dit bericht is 17 minuten geleden gemaakt, om 10:20 UTC
Wind 14 kt uit het zuiden
Temperatuur 23°C
Vochtigheid 57%
Druk 1014 hPa
Zicht 10 km of meer
Verspreide wolken op 5000 ft
Verspreide wolken op 21000 ft

METAR: ETNT 191020Z 19014KT 9999 SCT050 SCT210 23/14 Q1014 BLU+BLU+

Tijdstip: 12:37 (10:37 UTC)

Verwachting

Dit bericht is 3 uur en het 37 minuten geleden gemaakt, om 07:00 UTC
Verwachting geldig van 19 om 08 UTC tot 19 om 17 UTC
Wind 12 kt uit het zuidzuidwesten met uitschieters tot 25 kt
Zicht 10 km of meer
Verspreide wolken op 3000 ft
Gebroken wolken op 25000 ft

TAF: ETNT 190700Z 1908/1917 21012G25KT 9999 NSW SCT030 BKN250 BY ETGL

Waarnemingen en weersverwachtingen van meer dan 4000 vliegvelden (METAR en TAF).

De beschikbare stations zijn de gele en rode punten op de kaart.

Ga met uw muis naar het station om de naam te zien.

Klik dan om waarnemingen en weersverwachtingen te zien.

kaart wijzigen: klik op de groene knoppen met een zwart kruis om in te zoomen, op de groene knop met een streepje om uit te zoomen of op de groene pijlen voor aangrenzende kaarten.


METAR-TAF: